createdAt,value
2024-04-12T00:00:23.109Z,26.45
2024-04-12T00:03:11.332Z,28.63
2024-04-12T00:06:02.029Z,28.00
2024-04-12T00:08:49.514Z,29.60
2024-04-12T00:11:35.285Z,25.50
2024-04-12T00:14:23.285Z,28.98
2024-04-12T00:17:17.438Z,25.08
2024-04-12T00:20:06.009Z,32.35
2024-04-12T00:22:57.023Z,27.52
2024-04-12T00:25:43.749Z,29.33
2024-04-12T00:28:32.932Z,29.70
2024-04-12T00:31:19.547Z,26.27
2024-04-12T00:34:08.798Z,27.98
2024-04-12T00:37:01.991Z,27.92
2024-04-12T00:39:55.411Z,29.52
2024-04-12T00:42:45.408Z,28.65
2024-04-12T00:45:41.217Z,31.38
2024-04-12T00:48:27.906Z,29.02
2024-04-12T00:51:18.553Z,30.13
2024-04-12T00:54:07.728Z,30.42
2024-04-12T00:56:59.662Z,28.60
2024-04-12T00:59:45.755Z,27.23
2024-04-12T01:02:33.443Z,25.40
2024-04-12T01:05:20.366Z,20.77
2024-04-12T01:08:09.248Z,18.98
2024-04-12T01:10:54.799Z,18.27
2024-04-12T01:13:41.727Z,18.30
2024-04-12T01:16:27.575Z,19.40
2024-04-12T01:19:13.572Z,18.40
2024-04-12T01:22:01.436Z,17.58
2024-04-12T01:24:50.503Z,13.90
2024-04-12T01:27:39.313Z,12.60
2024-04-12T01:30:25.131Z,17.00
2024-04-12T01:33:11.217Z,11.02
2024-04-12T01:35:57.040Z,9.82
2024-04-12T01:38:43.112Z,9.77
2024-04-12T01:41:34.681Z,8.65
2024-04-12T01:44:25.721Z,9.35
2024-04-12T01:47:18.255Z,8.75
2024-04-12T01:50:06.222Z,7.95
2024-04-12T01:52:55.821Z,8.40
2024-04-12T01:55:47.170Z,10.73
2024-04-12T01:58:35.771Z,7.43
2024-04-12T02:01:27.268Z,6.80
2024-04-12T02:04:17.363Z,6.25
2024-04-12T02:07:03.347Z,6.22
2024-04-12T02:09:49.700Z,5.65
2024-04-12T02:12:37.877Z,8.48
2024-04-12T02:15:27.208Z,6.65
2024-04-12T02:18:15.520Z,7.15
2024-04-12T02:21:12.296Z,7.90
2024-04-12T02:24:01.812Z,6.75
2024-04-12T02:26:48.208Z,8.00
2024-04-12T02:29:35.572Z,8.85
2024-04-12T02:32:24.574Z,10.27
2024-04-12T02:35:10.686Z,7.80
2024-04-12T02:37:58.430Z,8.43
2024-04-12T02:40:44.291Z,10.60
2024-04-12T02:43:31.224Z,9.27
2024-04-12T02:46:16.937Z,9.25
2024-04-12T02:49:11.859Z,10.75
2024-04-12T02:52:01.110Z,12.90
2024-04-12T02:54:49.616Z,13.10
2024-04-12T02:57:35.487Z,12.20
2024-04-12T03:00:24.404Z,15.07
2024-04-12T03:03:10.194Z,14.75
2024-04-12T03:06:02.285Z,17.75
2024-04-12T03:08:51.324Z,19.65
2024-04-12T03:11:39.458Z,17.73
2024-04-12T03:14:25.471Z,19.00
2024-04-12T03:17:13.047Z,19.40
2024-04-12T03:19:59.415Z,19.75
2024-04-12T03:22:48.143Z,17.60
2024-04-12T03:25:38.863Z,15.18
2024-04-12T03:28:24.782Z,16.27
2024-04-12T03:31:10.569Z,14.75
2024-04-12T03:33:57.029Z,15.18
2024-04-12T03:36:43.412Z,13.18
2024-04-12T03:39:35.781Z,13.82
2024-04-12T03:42:22.084Z,13.02
2024-04-12T03:45:14.650Z,13.07
2024-04-12T03:48:05.717Z,11.75
2024-04-12T03:51:01.215Z,12.52
2024-04-12T03:53:52.598Z,10.32
2024-04-12T03:59:31.130Z,14.02
2024-04-12T04:02:20.332Z,11.95
2024-04-12T04:05:16.073Z,13.00
2024-04-12T04:08:01.866Z,12.52
2024-04-12T04:10:50.684Z,14.70
2024-04-12T04:13:42.901Z,14.13
2024-04-12T04:16:37.619Z,14.93
2024-04-12T04:19:40.278Z,15.90
2024-04-12T04:22:28.656Z,14.90
2024-04-12T04:25:15.176Z,16.15
2024-04-12T04:28:01.161Z,20.35
2024-04-12T04:30:50.061Z,16.58
2024-04-12T04:33:36.716Z,19.15
2024-04-12T04:36:22.968Z,17.50
2024-04-12T04:39:08.845Z,19.95
2024-04-12T04:41:55.205Z,20.42
2024-04-12T04:44:41.304Z,17.90
2024-04-12T04:47:32.303Z,18.48
2024-04-12T04:50:20.859Z,18.92
2024-04-12T04:53:07.025Z,20.23
2024-04-12T04:55:54.916Z,20.60
2024-04-12T04:58:43.104Z,21.30
2024-04-12T05:01:28.913Z,17.98
2024-04-12T05:04:18.234Z,18.48
2024-04-12T05:07:04.484Z,19.80
2024-04-12T05:09:54.648Z,16.73
2024-04-12T05:12:42.210Z,17.58
2024-04-12T05:15:40.569Z,19.13
2024-04-12T05:18:28.167Z,17.80
2024-04-12T05:21:17.079Z,20.92
2024-04-12T05:24:03.551Z,21.40
2024-04-12T05:27:02.500Z,20.35
2024-04-12T05:29:48.265Z,20.95
2024-04-12T05:32:34.309Z,20.27
2024-04-12T05:35:27.804Z,17.67
2024-04-12T05:38:22.386Z,16.95
2024-04-12T05:41:10.490Z,16.58
2024-04-12T05:43:56.631Z,16.65
2024-04-12T05:46:43.360Z,23.85
2024-04-12T05:49:32.294Z,21.10
2024-04-12T05:52:20.953Z,18.48
2024-04-12T05:55:15.028Z,17.35
2024-04-12T05:58:02.037Z,14.52
2024-04-12T06:00:51.754Z,17.27
2024-04-12T06:03:47.245Z,14.90
2024-04-12T06:06:35.522Z,13.90
2024-04-12T06:09:22.305Z,15.48
2024-04-12T06:12:17.591Z,15.52
2024-04-12T06:15:10.451Z,18.02
2024-04-12T06:17:56.152Z,17.98
2024-04-12T06:20:42.729Z,14.18
2024-04-12T06:23:34.606Z,15.73
2024-04-12T06:26:26.277Z,17.77
2024-04-12T06:29:26.444Z,20.88
2024-04-12T06:32:18.616Z,15.35
2024-04-12T06:35:05.247Z,16.65
2024-04-12T06:37:54.728Z,16.38
2024-04-12T06:40:45.421Z,17.25
2024-04-12T06:43:35.089Z,18.00
2024-04-12T06:46:28.673Z,17.13
2024-04-12T06:49:16.227Z,20.85
2024-04-12T06:52:11.466Z,19.83
2024-04-12T06:55:02.453Z,19.15
2024-04-12T07:00:39.559Z,16.88
2024-04-12T07:03:29.443Z,16.98
2024-04-12T07:06:17.635Z,16.33
2024-04-12T07:09:10.098Z,14.27
2024-04-12T07:11:55.996Z,15.00
2024-04-12T07:14:47.418Z,18.80
2024-04-12T07:17:33.301Z,15.98
2024-04-12T07:20:29.277Z,17.58
2024-04-12T07:23:18.493Z,16.17
2024-04-12T07:26:07.912Z,14.30
2024-04-12T07:29:00.229Z,23.77
2024-04-12T07:31:54.280Z,17.25
2024-04-12T07:34:49.553Z,20.77
2024-04-12T07:37:38.617Z,18.08
2024-04-12T07:40:26.024Z,19.23
2024-04-12T07:43:15.639Z,13.43
2024-04-12T07:46:06.590Z,14.48
2024-04-12T07:48:52.539Z,17.00
2024-04-12T07:51:41.668Z,19.65
2024-04-12T07:54:30.437Z,18.52
2024-04-12T07:57:16.955Z,19.17
2024-04-12T08:00:11.066Z,18.50
2024-04-12T08:02:58.342Z,17.30
2024-04-12T08:06:05.111Z,12.90
2024-04-12T08:09:05.832Z,15.70
2024-04-12T08:12:00.608Z,17.00
2024-04-12T08:14:55.191Z,17.60
2024-04-12T08:17:42.086Z,16.73
2024-04-12T08:20:28.399Z,13.88
2024-04-12T08:23:19.168Z,17.90
2024-04-12T08:26:11.364Z,18.20
2024-04-12T08:29:01.894Z,13.45
2024-04-12T08:31:49.067Z,14.82
2024-04-12T08:34:36.007Z,13.25
2024-04-12T08:37:31.390Z,13.23
2024-04-12T08:40:20.751Z,15.65
2024-04-12T08:43:11.607Z,16.00
2024-04-12T08:46:04.608Z,16.77
2024-04-12T08:48:50.811Z,16.52
2024-04-12T08:51:37.672Z,14.23
2024-04-12T08:54:23.710Z,12.35
2024-04-12T08:57:09.356Z,11.40
2024-04-12T09:00:00.099Z,11.73
2024-04-12T09:02:52.560Z,14.82
2024-04-12T09:05:44.167Z,15.27
2024-04-12T09:08:32.723Z,14.23
2024-04-12T09:11:26.786Z,15.03
2024-04-12T09:14:21.176Z,15.07
2024-04-12T09:17:15.274Z,14.75
2024-04-12T09:20:05.368Z,11.60
2024-04-12T09:22:55.768Z,10.02
2024-04-12T09:25:45.149Z,13.57
2024-04-12T09:28:33.724Z,11.00
2024-04-12T09:31:38.511Z,11.00
2024-04-12T09:34:38.016Z,11.88
2024-04-12T09:37:46.104Z,9.35
2024-04-12T09:40:35.885Z,12.88
2024-04-12T09:43:30.581Z,8.18
2024-04-12T09:46:24.278Z,9.75
2024-04-12T09:49:29.146Z,9.32
2024-04-12T09:52:35.212Z,10.85
2024-04-12T09:55:43.129Z,10.90
2024-04-12T09:59:09.761Z,10.38
2024-04-12T10:02:15.223Z,12.57
2024-04-12T10:05:21.055Z,11.75
2024-04-12T10:08:30.999Z,10.35
2024-04-12T10:11:57.596Z,11.73
2024-04-12T10:15:02.473Z,10.82
2024-04-12T10:18:06.985Z,12.70
2024-04-12T10:21:23.104Z,11.75
2024-04-12T10:24:27.993Z,12.65
2024-04-12T10:27:38.637Z,10.88
2024-04-12T10:30:42.840Z,15.68
2024-04-12T10:33:47.048Z,13.68
2024-04-12T10:36:51.896Z,13.40
2024-04-12T10:39:45.762Z,10.13
2024-04-12T10:42:34.131Z,10.63
2024-04-12T10:45:20.089Z,11.95
2024-04-12T10:48:07.032Z,8.68
2024-04-12T10:50:55.608Z,10.43
2024-04-12T10:53:42.219Z,10.93
2024-04-12T10:56:28.190Z,12.40
2024-04-12T10:59:28.465Z,9.27
2024-04-12T11:02:15.717Z,11.35
2024-04-12T11:05:26.286Z,11.23
2024-04-12T11:08:20.318Z,11.73
2024-04-12T11:11:20.657Z,8.80
2024-04-12T11:14:17.377Z,9.85
2024-04-12T11:17:24.504Z,7.70
2024-04-12T11:20:31.882Z,7.93
2024-04-12T11:23:37.081Z,7.20
2024-04-12T11:26:41.710Z,6.53
2024-04-12T11:29:46.041Z,7.63
2024-04-12T11:32:36.141Z,8.52
2024-04-12T11:35:25.963Z,6.65
2024-04-12T11:38:14.584Z,6.13
2024-04-12T11:41:02.455Z,5.47
2024-04-12T11:43:48.292Z,6.75
2024-04-12T11:46:35.324Z,8.00
2024-04-12T11:49:27.603Z,6.43
2024-04-12T11:52:17.464Z,8.00
2024-04-12T11:55:07.635Z,6.10
2024-04-12T11:57:53.968Z,8.55
2024-04-12T12:00:41.669Z,6.35
2024-04-12T12:03:27.783Z,5.20
2024-04-12T12:06:17.662Z,6.45
2024-04-12T12:09:12.859Z,4.95
2024-04-12T12:11:59.694Z,8.77
2024-04-12T12:14:45.686Z,3.28
2024-04-12T12:17:32.169Z,4.53
2024-04-12T12:20:19.604Z,2.42
2024-04-12T12:23:09.330Z,2.85
2024-04-12T12:25:55.422Z,3.00
2024-04-12T12:28:41.379Z,4.57
2024-04-12T12:31:28.426Z,3.20
2024-04-12T12:34:15.613Z,3.45
2024-04-12T12:37:02.072Z,5.85
2024-04-12T12:39:52.263Z,3.15
2024-04-12T12:42:42.693Z,3.53
2024-04-12T12:45:29.297Z,5.03
2024-04-12T12:48:22.394Z,6.43
2024-04-12T12:53:56.482Z,5.95
2024-04-12T12:56:44.930Z,5.97
2024-04-12T12:59:31.634Z,4.05
2024-04-12T13:02:18.252Z,5.45
2024-04-12T13:05:07.509Z,3.08
2024-04-12T13:07:53.661Z,3.70
2024-04-12T13:10:39.672Z,3.75
2024-04-12T13:13:28.447Z,2.63
2024-04-12T13:16:17.336Z,4.78
2024-04-12T13:19:09.133Z,3.33
2024-04-12T13:21:56.301Z,2.28
2024-04-12T13:24:45.110Z,3.60
2024-04-12T13:27:30.789Z,3.83
2024-04-12T13:30:19.758Z,2.25
2024-04-12T13:33:05.845Z,3.28
2024-04-12T13:35:53.745Z,2.40
2024-04-12T13:38:39.715Z,2.65
2024-04-12T13:41:27.931Z,3.15
2024-04-12T13:44:27.053Z,3.70
2024-04-12T13:47:34.356Z,2.60
2024-04-12T13:50:38.536Z,6.80
2024-04-12T13:53:34.088Z,2.67
2024-04-12T13:56:21.900Z,4.00
2024-04-12T13:59:12.244Z,5.03
2024-04-12T14:02:00.416Z,2.75
2024-04-12T14:04:49.282Z,4.70
2024-04-12T14:07:35.577Z,1.95
2024-04-12T14:10:24.150Z,2.92
2024-04-12T14:13:18.326Z,1.52
2024-04-12T14:16:04.776Z,2.15
2024-04-12T14:18:51.937Z,2.95
2024-04-12T14:21:42.005Z,2.22
2024-04-12T14:24:46.540Z,3.40
2024-04-12T14:27:32.683Z,3.05
2024-04-12T14:30:18.498Z,2.95
2024-04-12T14:33:05.494Z,2.38
2024-04-12T14:35:51.441Z,2.17
2024-04-12T14:38:41.959Z,4.72
2024-04-12T14:41:28.042Z,2.50
2024-04-12T14:44:13.958Z,2.20
2024-04-12T14:46:59.845Z,5.10
2024-04-12T14:49:45.557Z,3.33
2024-04-12T14:52:31.396Z,3.38
2024-04-12T14:55:20.059Z,3.17
2024-04-12T14:58:06.507Z,2.08
2024-04-12T15:00:52.390Z,3.13
2024-04-12T15:03:56.630Z,3.17
2024-04-12T15:07:00.569Z,2.97
2024-04-12T15:10:04.835Z,2.42
2024-04-12T15:13:11.805Z,2.58
2024-04-12T15:16:15.818Z,2.60
2024-04-12T15:19:20.386Z,1.27
2024-04-12T15:22:24.592Z,3.22
2024-04-12T15:25:31.936Z,3.35
2024-04-12T15:28:39.304Z,2.53
2024-04-12T15:31:43.381Z,2.63
2024-04-12T15:34:47.727Z,2.88
2024-04-12T15:37:52.336Z,1.15
2024-04-12T15:40:56.554Z,3.60
2024-04-12T15:44:03.660Z,2.47
2024-04-12T15:47:01.905Z,1.17
2024-04-12T15:49:50.069Z,1.45
2024-04-12T15:52:38.609Z,2.47
2024-04-12T15:55:27.129Z,3.28
2024-04-12T15:58:35.794Z,4.25
2024-04-12T16:01:42.969Z,2.22
2024-04-12T16:04:47.032Z,3.55
2024-04-12T16:07:51.197Z,2.75
2024-04-12T16:10:53.289Z,3.40
2024-04-12T16:13:39.130Z,3.03
2024-04-12T16:16:27.495Z,1.75
2024-04-12T16:19:13.436Z,1.85
2024-04-12T16:22:02.326Z,3.10
2024-04-12T16:24:48.382Z,2.97
2024-04-12T16:27:34.385Z,2.47
2024-04-12T16:30:20.116Z,2.22
2024-04-12T16:33:09.343Z,1.35
2024-04-12T16:35:55.419Z,1.58
2024-04-12T16:38:41.207Z,1.77
2024-04-12T16:41:27.278Z,5.07
2024-04-12T16:44:14.783Z,1.77
2024-04-12T16:47:00.646Z,2.28
2024-04-12T16:49:49.157Z,3.38
2024-04-12T16:52:38.058Z,4.63
2024-04-12T16:55:25.534Z,3.08
2024-04-12T16:58:11.591Z,3.50
2024-04-12T17:00:58.746Z,1.73
2024-04-12T17:03:44.811Z,2.90
2024-04-12T17:06:34.397Z,0.98
2024-04-12T17:09:24.989Z,4.72
2024-04-12T17:12:11.305Z,1.48
2024-04-12T17:14:57.052Z,3.88
2024-04-12T17:17:43.422Z,1.48
2024-04-12T17:20:29.305Z,2.30
2024-04-12T17:23:17.568Z,1.70
2024-04-12T17:26:08.561Z,4.22
2024-04-12T17:28:55.004Z,2.92
2024-04-12T17:31:41.145Z,2.05
2024-04-12T17:34:29.041Z,2.63
2024-04-12T17:37:16.567Z,1.90
2024-04-12T17:40:09.456Z,2.95
2024-04-12T17:42:55.481Z,3.58
2024-04-12T17:45:41.115Z,4.07
2024-04-12T17:48:27.195Z,3.40
2024-04-12T17:51:13.304Z,2.20
2024-04-12T17:53:59.189Z,3.38
2024-04-12T17:56:47.911Z,5.50
2024-04-12T17:59:33.914Z,2.00
2024-04-12T18:02:23.468Z,3.22
2024-04-12T18:05:11.463Z,1.60
2024-04-12T18:07:57.934Z,3.30
2024-04-12T18:10:44.111Z,5.03
2024-04-12T18:13:33.149Z,3.88
2024-04-12T18:16:21.256Z,3.83
2024-04-12T18:19:06.991Z,3.30
2024-04-12T18:21:52.763Z,4.53
2024-04-12T18:24:38.688Z,3.90
2024-04-12T18:27:24.538Z,4.50
2024-04-12T18:30:13.201Z,5.32
2024-04-12T18:33:01.285Z,5.88
2024-04-12T18:35:50.529Z,6.00
2024-04-12T18:38:54.982Z,4.35
2024-04-12T18:42:00.794Z,3.58
2024-04-12T18:45:05.719Z,4.05
2024-04-12T18:47:55.419Z,4.22
2024-04-12T18:50:41.839Z,3.35
2024-04-12T18:53:28.146Z,4.63
2024-04-12T18:56:15.016Z,4.43
2024-04-12T18:59:01.323Z,4.43
2024-04-12T19:01:47.699Z,7.18
2024-04-12T19:04:36.376Z,4.60
2024-04-12T19:07:22.231Z,5.32
2024-04-12T19:10:09.318Z,8.85
2024-04-12T19:12:55.026Z,7.32
2024-04-12T19:15:42.049Z,5.20
2024-04-12T19:18:28.399Z,4.25
2024-04-12T19:21:16.896Z,5.72
2024-04-12T19:24:03.453Z,5.45
2024-04-12T19:26:53.907Z,3.38
2024-04-12T19:29:40.004Z,4.00
2024-04-12T19:32:25.932Z,5.07
2024-04-12T19:35:12.579Z,11.32
2024-04-12T19:38:01.281Z,5.72
2024-04-12T19:40:55.005Z,7.18
2024-04-12T19:43:41.057Z,5.63
2024-04-12T19:46:26.755Z,4.10
2024-04-12T19:49:12.797Z,6.68
2024-04-12T19:51:59.017Z,5.57
2024-04-12T19:54:48.522Z,3.78
2024-04-12T19:57:34.501Z,6.35
2024-04-12T20:00:20.292Z,6.03
2024-04-12T20:03:06.452Z,5.05
2024-04-12T20:05:53.796Z,5.53
2024-04-12T20:08:39.646Z,6.63
2024-04-12T20:11:29.537Z,5.00
2024-04-12T20:14:15.473Z,6.82
2024-04-12T20:17:04.691Z,4.82
2024-04-12T20:19:53.565Z,4.55
2024-04-12T20:22:40.179Z,6.72
2024-04-12T20:25:29.476Z,7.03
2024-04-12T20:28:24.326Z,8.18
2024-04-12T20:31:22.514Z,3.88
2024-04-12T20:34:08.884Z,5.63
2024-04-12T20:36:55.005Z,3.85
2024-04-12T20:39:40.823Z,4.75
2024-04-12T20:42:26.908Z,8.57
2024-04-12T20:45:15.679Z,9.73
2024-04-12T20:48:01.685Z,6.90
2024-04-12T20:50:47.573Z,5.78
2024-04-12T20:53:33.954Z,8.20
2024-04-12T20:56:30.546Z,4.15
2024-04-12T20:59:16.486Z,11.90
2024-04-12T21:02:04.999Z,8.35
2024-04-12T21:04:52.443Z,6.50
2024-04-12T21:07:40.550Z,5.68
2024-04-12T21:10:28.438Z,6.45
2024-04-12T21:13:14.230Z,6.35
2024-04-12T21:16:00.939Z,5.10
2024-04-12T21:18:51.988Z,4.40
2024-04-12T21:21:38.911Z,5.32
2024-04-12T21:24:26.283Z,5.22
2024-04-12T21:27:13.462Z,5.72
2024-04-12T21:29:59.467Z,6.28
2024-04-12T21:32:45.534Z,7.15
2024-04-12T21:35:34.017Z,6.93
2024-04-12T21:38:20.200Z,7.85
2024-04-12T21:41:08.437Z,4.68
2024-04-12T21:43:56.308Z,6.65
2024-04-12T21:46:45.181Z,5.38
2024-04-12T21:49:38.881Z,5.13
2024-04-12T21:52:28.422Z,3.95
2024-04-12T21:55:18.620Z,5.28
2024-04-12T21:58:05.685Z,5.50
2024-04-12T22:00:51.847Z,6.55
2024-04-12T22:03:42.278Z,5.30
2024-04-12T22:06:33.189Z,3.00
2024-04-12T22:09:32.350Z,9.10
2024-04-12T22:12:18.634Z,5.05
2024-04-12T22:15:05.514Z,6.13
2024-04-12T22:17:51.402Z,4.35
2024-04-12T22:20:38.951Z,9.23
2024-04-12T22:23:25.038Z,3.92
2024-04-12T22:26:15.074Z,5.50
2024-04-12T22:29:00.977Z,5.05
2024-04-12T22:31:49.260Z,6.85
2024-04-12T22:34:35.087Z,8.80
2024-04-12T22:37:21.646Z,4.30
2024-04-12T22:40:08.227Z,4.28
2024-04-12T22:42:57.758Z,7.25
2024-04-12T22:45:44.544Z,6.35
2024-04-12T22:48:31.244Z,4.93
2024-04-12T22:51:23.284Z,4.47
2024-04-12T22:54:12.634Z,5.30
2024-04-12T22:57:02.779Z,7.38
2024-04-12T22:59:51.453Z,3.75
2024-04-12T23:02:37.596Z,11.07
2024-04-12T23:05:23.476Z,3.50
2024-04-12T23:08:09.695Z,5.00
2024-04-12T23:10:55.797Z,3.45
2024-04-12T23:13:41.883Z,4.13
2024-04-12T23:16:31.037Z,4.28
2024-04-12T23:19:17.295Z,3.17
2024-04-12T23:22:06.107Z,4.88
2024-04-12T23:24:51.864Z,5.93
2024-04-12T23:27:38.344Z,5.90
2024-04-12T23:30:24.334Z,3.63
2024-04-12T23:33:12.823Z,4.38
2024-04-12T23:35:59.421Z,4.90
2024-04-12T23:38:45.246Z,4.88
2024-04-12T23:41:30.971Z,4.35
2024-04-12T23:44:16.918Z,5.50
2024-04-12T23:47:02.869Z,4.47
2024-04-12T23:49:51.738Z,5.25
2024-04-12T23:52:37.712Z,4.22
2024-04-12T23:55:23.478Z,5.85
2024-04-12T23:58:12.253Z,4.18
